Time;durP1;ratioP1;P1;durP2;ratioP2;P2;SDS_P1;SDS_P2;PMS_P1;PMS_P2;Temp;Humidity;BMP_temperature;BMP_pressure;BME280_temperature;BME280_humidity;BME280_pressure;Samples;Min_cycle;Max_cycle;Signal;HPM_P1;HPM_P2
2022/03/10 00:01:13;;;;;;;16.83;11.02;;;4.60;71.50;;;;;;5070522;28;20480;-79
2022/03/10 00:03:38;;;;;;;15.02;10.18;;;4.60;71.60;;;;;;5070902;28;20122;-79
2022/03/10 00:06:04;;;;;;;;;;;4.50;71.90;;;;;;5071489;28;20051;-79
2022/03/10 00:08:29;;;;;;;14.70;10.60;;;4.50;71.80;;;;;;5088811;28;19920;-79
2022/03/10 00:10:55;;;;;;;15.10;10.57;;;4.50;72.20;;;;;;5070459;28;20055;-79
2022/03/10 00:13:21;;;;;;;15.85;11.02;;;4.40;72.60;;;;;;5070977;28;20054;-79
2022/03/10 00:15:46;;;;;;;15.77;10.38;;;4.40;73.50;;;;;;5070714;28;20040;-79
2022/03/10 00:18:12;;;;;;;15.20;10.77;;;4.30;73.30;;;;;;5074880;28;20043;-79
2022/03/10 00:20:37;;;;;;;15.65;9.80;;;4.20;73.10;;;;;;5074523;28;20067;-79
2022/03/10 00:23:03;;;;;;;17.30;11.40;;;4.20;73.40;;;;;;5074894;28;20101;-79
2022/03/10 00:25:31;;;;;;;17.27;11.23;;;4.20;73.70;;;;;;5074134;28;20036;-79
2022/03/10 00:27:57;;;;;;;15.25;11.07;;;4.10;73.80;;;;;;5074427;28;20518;-79
2022/03/10 00:30:23;;;;;;;15.57;11.05;;;4.00;73.70;;;;;;5074668;28;20056;-80
2022/03/10 00:32:51;;;;;;;17.77;11.07;;;4.00;74.80;;;;;;5074475;28;20600;-79
2022/03/10 00:35:21;;;;;;;19.35;11.23;;;4.00;75.30;;;;;;5074562;28;20098;-79
2022/03/10 00:37:47;;;;;;;18.70;10.95;;;4.00;75.30;;;;;;5074028;28;20036;-79
2022/03/10 00:40:15;;;;;;;14.80;10.98;;;4.00;75.00;;;;;;5074463;28;20046;-79
2022/03/10 00:42:41;;;;;;;14.60;10.57;;;3.90;75.10;;;;;;5074345;28;20040;-79
2022/03/10 00:45:08;;;;;;;15.82;11.93;;;3.90;74.90;;;;;;5072932;28;20101;-79
2022/03/10 00:47:34;;;;;;;16.30;11.07;;;3.80;75.10;;;;;;5057587;28;20131;-79
2022/03/10 00:50:00;;;;;;;17.83;11.32;;;3.80;75.60;;;;;;5074474;28;20094;-79
2022/03/10 00:52:27;;;;;;;14.65;10.35;;;3.70;76.30;;;;;;5056718;28;20098;-79
2022/03/10 00:54:53;;;;;;;17.33;11.65;;;3.70;76.60;;;;;;5057640;28;20048;-79
2022/03/10 00:57:18;;;;;;;15.68;11.30;;;3.60;76.60;;;;;;5074020;28;20460;-79
2022/03/10 00:59:44;;;;;;;16.77;10.68;;;3.60;77.30;;;;;;5073921;28;20047;-79
2022/03/10 01:02:10;;;;;;;16.73;11.10;;;3.60;77.10;;;;;;5057602;28;20051;-80
2022/03/10 01:04:35;;;;;;;15.63;11.52;;;3.60;77.30;;;;;;5073612;28;20553;-80
2022/03/10 01:07:01;;;;;;;17.33;11.70;;;3.60;77.40;;;;;;5073934;28;20139;-79
2022/03/10 01:09:26;;;;;;;15.65;11.35;;;3.60;78.00;;;;;;5073826;28;20130;-79
2022/03/10 01:11:52;;;;;;;18.58;11.05;;;3.50;77.80;;;;;;5073676;28;20047;-79
2022/03/10 01:14:18;;;;;;;16.13;10.90;;;3.50;78.30;;;;;;5073899;28;20042;-79
2022/03/10 01:16:43;;;;;;;15.45;11.27;;;3.50;78.50;;;;;;5091703;28;20048;-79
2022/03/10 01:19:10;;;;;;;15.23;10.70;;;3.50;79.10;;;;;;5073054;28;20044;-79
2022/03/10 01:21:35;;;;;;;18.38;11.65;;;3.60;78.60;;;;;;5073470;28;20551;-79
2022/03/10 01:24:01;;;;;;;16.35;11.25;;;3.60;78.30;;;;;;5073733;28;20052;-79
2022/03/10 01:26:27;;;;;;;15.90;11.15;;;3.60;78.30;;;;;;5073476;28;20087;-79
2022/03/10 01:28:52;;;;;;;17.92;12.13;;;3.60;78.50;;;;;;5071968;28;20494;-79
2022/03/10 01:31:18;;;;;;;17.90;11.75;;;3.50;78.90;;;;;;5073303;28;20087;-79
2022/03/10 01:33:44;;;;;;;19.23;12.35;;;3.50;78.90;;;;;;5073014;28;20098;-79
2022/03/10 01:36:09;;;;;;;16.05;11.25;;;3.50;79.40;;;;;;5094020;28;20511;-79
2022/03/10 01:38:39;;;;;;;16.17;11.30;;;3.50;79.00;;;;;;5068223;28;20036;-80
2022/03/10 01:41:05;;;;;;;18.38;11.32;;;3.50;79.30;;;;;;5072352;28;20075;-79
2022/03/10 01:43:31;;;;;;;16.55;11.57;;;3.50;79.00;;;;;;5072562;28;20121;-80
2022/03/10 01:45:57;;;;;;;17.67;11.50;;;3.50;79.00;;;;;;5089890;28;20478;-79
2022/03/10 01:48:23;;;;;;;18.00;11.35;;;3.50;78.80;;;;;;5072691;28;20485;-79
2022/03/10 01:50:48;;;;;;;15.10;11.20;;;3.50;78.30;;;;;;5072349;28;20047;-79
2022/03/10 01:53:15;;;;;;;19.75;11.48;;;3.50;78.50;;;;;;5072159;28;20040;-79
2022/03/10 01:55:41;;;;;;;16.08;11.05;;;3.60;78.30;;;;;;5072821;28;20040;-79
2022/03/10 01:58:08;;;;;;;14.95;10.05;;;3.50;77.80;;;;;;5073240;28;20551;-79
2022/03/10 02:00:33;;;;;;;15.23;10.80;;;3.60;77.50;;;;;;5073121;28;20407;-79
2022/03/10 02:02:59;;;;;;;15.25;10.85;;;3.60;77.70;;;;;;5072155;28;20044;-79
2022/03/10 02:05:25;;;;;;;16.63;10.80;;;3.60;77.50;;;;;;5072855;28;20148;-79
2022/03/10 02:10:35;;;;;;;15.60;10.80;;;3.60;77.20;;;;;;5072823;28;20055;-79
2022/03/10 02:13:01;;;;;;;21.23;11.40;;;3.70;77.10;;;;;;5072596;28;20043;-79
2022/03/10 02:18:13;;;;;;;16.63;11.05;;;3.70;76.50;;;;;;5072253;28;20052;-79
2022/03/10 02:20:39;;;;;;;17.15;10.23;;;3.70;76.20;;;;;;5072859;28;20088;-80
2022/03/10 02:23:08;;;;;;;16.40;10.52;;;3.80;75.80;;;;;;5072763;28;20403;-79
2022/03/10 02:25:36;;;;;;;16.50;11.10;;;3.80;76.00;;;;;;5071991;28;20491;-80
2022/03/10 02:28:02;;;;;;;17.45;11.38;;;3.70;75.90;;;;;;5072067;28;20044;-80
2022/03/10 02:30:29;;;;;;;15.48;10.77;;;3.70;76.30;;;;;;5071908;28;20495;-80
2022/03/10 02:32:55;;;;;;;15.85;10.82;;;3.70;76.20;;;;;;5072133;28;20064;-80
2022/03/10 02:35:21;;;;;;;17.52;11.23;;;3.60;76.20;;;;;;5071988;28;20051;-79
2022/03/10 02:37:47;;;;;;;15.68;10.65;;;3.60;76.50;;;;;;5071830;28;20062;-79
2022/03/10 02:40:13;;;;;;;14.98;10.50;;;3.50;76.60;;;;;;5071836;28;20490;-80
2022/03/10 02:42:39;;;;;;;14.07;9.65;;;3.50;76.70;;;;;;5072232;28;20048;-80
2022/03/10 02:45:06;;;;;;;18.00;11.10;;;3.40;76.30;;;;;;5071300;28;20145;-80
2022/03/10 02:47:32;;;;;;;15.70;10.75;;;3.40;76.30;;;;;;5055018;28;20040;-79
2022/03/10 02:49:58;;;;;;;18.88;11.77;;;3.40;76.70;;;;;;5070970;28;20674;-79
2022/03/10 02:52:23;;;;;;;19.45;11.88;;;3.30;77.20;;;;;;5071624;28;20555;-79
2022/03/10 02:54:50;;;;;;;18.38;11.48;;;3.30;77.20;;;;;;5071647;28;20136;-80
2022/03/10 02:57:16;;;;;;;16.33;11.65;;;3.20;77.60;;;;;;5055235;28;20051;-80
2022/03/10 02:59:42;;;;;;;20.00;12.23;;;3.20;77.80;;;;;;5071561;28;20604;-79
2022/03/10 03:02:08;;;;;;;18.48;11.90;;;3.10;78.80;;;;;;5054860;28;20040;-79
2022/03/10 03:04:34;;;;;;;16.95;11.23;;;3.00;78.10;;;;;;5071728;28;20071;-79
2022/03/10 03:07:01;;;;;;;18.25;11.95;;;3.00;78.40;;;;;;5071479;28;20051;-79
2022/03/10 03:09:27;;;;;;;15.23;11.13;;;3.00;78.60;;;;;;5055203;28;20052;-80
2022/03/10 03:11:52;;;;;;;16.30;13.38;;;3.00;78.80;;;;;;5069785;28;20420;-80
2022/03/10 03:14:22;;;;;;;18.83;12.48;;;2.90;78.90;;;;;;5054721;28;20052;-79
2022/03/10 03:16:51;;;;;;;16.70;11.32;;;2.90;79.00;;;;;;5071430;28;20086;-79
2022/03/10 03:19:17;;;;;;;16.77;11.63;;;2.80;78.60;;;;;;5071694;28;20050;-79
2022/03/10 03:21:43;;;;;;;16.83;10.95;;;2.90;78.70;;;;;;5070963;28;20032;-79
2022/03/10 03:24:08;;;;;;;18.10;11.10;;;2.90;78.50;;;;;;5071246;28;20083;-79
2022/03/10 03:26:34;;;;;;;16.77;11.43;;;2.80;78.40;;;;;;5071395;28;20406;-80
2022/03/10 03:29:00;;;;;;;17.10;11.75;;;2.80;78.20;;;;;;5071190;28;20087;-79
2022/03/10 03:31:25;;;;;;;16.77;11.48;;;2.80;78.80;;;;;;5070953;28;20048;-79
2022/03/10 03:33:51;;;;;;;19.65;11.20;;;2.80;78.50;;;;;;5071033;28;20490;-79
2022/03/10 03:36:17;;;;;;;16.27;10.57;;;2.80;78.40;;;;;;5070985;28;20044;-79
2022/03/10 03:38:42;;;;;;;14.80;10.98;;;2.80;78.50;;;;;;5070727;28;20054;-79
2022/03/10 03:41:08;;;;;;;17.48;11.77;;;2.80;78.60;;;;;;5071009;28;20083;-79
2022/03/10 03:43:33;;;;;;;17.92;11.48;;;2.80;78.60;;;;;;5054299;28;20473;-80
2022/03/10 03:45:59;;;;;;;22.75;12.82;;;2.80;80.00;;;;;;5088771;28;20055;-80
2022/03/10 03:48:25;;;;;;;19.13;11.45;;;2.70;80.00;;;;;;5073394;28;20536;-79
2022/03/10 03:50:51;;;;;;;17.77;12.50;;;2.60;80.20;;;;;;5109671;28;20131;-79
2022/03/10 03:53:17;;;;;;;14.98;10.43;;;2.60;79.80;;;;;;5098114;28;20058;-79
2022/03/10 03:55:43;;;;;;;19.20;12.10;;;2.60;79.70;;;;;;5098105;28;20043;-79
2022/03/10 03:58:08;;;;;;;17.02;11.48;;;2.60;79.90;;;;;;5097686;28;20039;-80
2022/03/10 04:00:36;;;;;;;17.70;11.48;;;2.60;80.10;;;;;;5097900;28;20410;-80
2022/03/10 04:03:11;;;;;;;18.88;12.00;;;2.60;80.00;;;;;;5080762;28;20051;-80
2022/03/10 04:05:38;;;;;;;16.58;11.25;;;2.60;79.90;;;;;;5097791;28;20059;-79
2022/03/10 04:08:07;;;;;;;19.15;11.13;;;2.60;80.30;;;;;;5098274;28;20398;-80
2022/03/10 04:10:33;;;;;;;15.80;10.98;;;2.60;80.30;;;;;;5098072;28;20040;-79
2022/03/10 04:12:59;;;;;;;18.35;11.57;;;2.50;80.30;;;;;;5097793;28;20072;-80
2022/03/10 04:15:24;;;;;;;17.33;11.00;;;2.50;79.80;;;;;;5098025;28;20498;-80
2022/03/10 04:17:50;;;;;;;17.40;11.73;;;2.60;79.90;;;;;;5080550;28;20039;-80
2022/03/10 04:20:16;;;;;;;15.93;11.18;;;2.50;80.00;;;;;;5097559;28;20433;-79
2022/03/10 04:22:41;;;;;;;17.58;12.23;;;2.60;80.20;;;;;;5097875;28;20048;-80
2022/03/10 04:25:08;;;;;;;21.15;11.93;;;2.50;81.10;;;;;;5097508;28;20044;-80
2022/03/10 04:27:34;;;;;;;19.42;11.77;;;2.40;81.60;;;;;;5097325;28;20186;-80
2022/03/10 04:30:00;;;;;;;18.65;14.68;;;2.40;82.00;;;;;;5096007;28;20412;-80
2022/03/10 04:32:26;;;;;;;19.67;15.07;;;2.30;82.20;;;;;;5096440;28;20415;-79
2022/03/10 04:34:52;;;;;;;22.95;12.05;;;2.30;82.50;;;;;;5097893;28;20419;-80
2022/03/10 04:37:17;;;;;;;17.38;11.90;;;2.30;82.20;;;;;;5097604;28;20696;-80
2022/03/10 04:39:43;;;;;;;18.77;12.40;;;2.30;81.50;;;;;;5097387;28;20039;-80
2022/03/10 04:42:10;;;;;;;17.60;11.80;;;2.30;81.20;;;;;;5080716;28;20135;-80
2022/03/10 04:44:35;;;;;;;16.95;11.00;;;2.40;81.10;;;;;;5094317;28;20749;-80
2022/03/10 04:47:01;;;;;;;16.33;10.55;;;2.40;80.90;;;;;;5076830;28;20146;-79
2022/03/10 04:49:27;;;;;;;19.70;14.88;;;2.40;81.10;;;;;;5093247;28;21458;-80
2022/03/10 04:51:52;;;;;;;17.43;13.73;;;2.40;81.20;;;;;;5092218;28;20745;-79
2022/03/10 04:54:18;;;;;;;20.23;15.20;;;2.40;81.20;;;;;;5092599;28;20490;-79
2022/03/10 04:56:44;;;;;;;17.67;13.75;;;2.40;81.20;;;;;;5092942;28;20455;-79
2022/03/10 04:59:10;;;;;;;19.20;12.80;;;2.40;80.70;;;;;;5077239;28;20044;-80
2022/03/10 05:01:35;;;;;;;16.48;11.63;;;2.40;80.90;;;;;;5094283;28;20036;-80
2022/03/10 05:04:01;;;;;;;16.23;10.32;;;2.50;81.10;;;;;;5089934;28;20534;-80
2022/03/10 05:06:26;;;;;;;17.38;12.00;;;2.50;81.20;;;;;;5090780;28;20056;-80
2022/03/10 05:08:52;;;;;;;;;;;2.40;80.80;;;;;;5090977;28;20038;-80
2022/03/10 05:11:18;;;;;;;19.45;11.88;;;2.50;80.60;;;;;;5090497;28;19920;-80
2022/03/10 05:13:43;;;;;;;18.75;12.60;;;2.50;81.40;;;;;;5090694;28;20036;-80
2022/03/10 05:16:09;;;;;;;17.63;11.80;;;2.40;81.70;;;;;;5090447;28;20735;-80
2022/03/10 05:18:35;;;;;;;22.73;12.02;;;2.40;82.10;;;;;;5090099;28;20436;-80
2022/03/10 05:21:00;;;;;;;20.00;12.75;;;2.30;82.50;;;;;;5090629;28;20043;-80
2022/03/10 05:23:26;;;;;;;;;;;2.20;82.70;;;;;;5073978;28;20036;-79
2022/03/10 05:25:52;;;;;;;;;;;2.20;82.90;;;;;;5073778;28;20006;-80
2022/03/10 05:28:17;;;;;;;17.80;12.20;;;2.10;83.20;;;;;;5090131;28;19924;-80
2022/03/10 05:30:45;;;;;;;17.73;12.45;;;2.10;83.40;;;;;;5089753;28;20052;-80
2022/03/10 05:33:11;;;;;;;19.20;12.57;;;2.10;83.40;;;;;;5073309;28;20502;-79
2022/03/10 05:35:38;;;;;;;16.88;12.43;;;2.00;83.90;;;;;;5089820;28;20051;-80
2022/03/10 05:38:03;;;;;;;19.35;12.60;;;2.00;84.40;;;;;;5090318;28;20052;-79
2022/03/10 05:40:29;;;;;;;20.55;15.70;;;2.00;84.70;;;;;;5072022;28;20394;-80
2022/03/10 05:42:55;;;;;;;20.20;15.80;;;2.00;84.70;;;;;;5088443;28;20533;-80
2022/03/10 05:45:22;;;;;;;19.95;16.17;;;1.90;84.90;;;;;;5092140;28;20408;-80
2022/03/10 05:47:50;;;;;;;19.52;13.65;;;1.90;85.30;;;;;;5093132;28;20543;-80
2022/03/10 05:50:17;;;;;;;19.55;13.55;;;1.90;85.50;;;;;;5093314;28;20067;-80
2022/03/10 05:52:45;;;;;;;19.52;15.50;;;1.90;85.70;;;;;;5091387;28;20487;-79
2022/03/10 05:55:11;;;;;;;18.38;14.88;;;1.90;85.80;;;;;;5091820;28;20407;-79
2022/03/10 05:57:36;;;;;;;19.17;14.98;;;1.90;85.80;;;;;;5092271;28;20404;-79
2022/03/10 06:00:03;;;;;;;18.90;14.83;;;1.90;85.80;;;;;;5091491;28;20404;-80
2022/03/10 06:02:28;;;;;;;18.08;12.43;;;1.90;85.70;;;;;;5093080;28;20749;-79
2022/03/10 06:04:59;;;;;;;19.50;12.02;;;2.00;86.20;;;;;;5092902;28;20130;-80
2022/03/10 06:07:25;;;;;;;18.48;12.15;;;2.00;85.60;;;;;;5092913;28;20096;-80
2022/03/10 06:09:50;;;;;;;16.60;11.50;;;2.10;85.40;;;;;;5076100;28;20052;-80
2022/03/10 06:12:21;;;;;;;18.02;12.07;;;2.10;85.00;;;;;;5092844;28;20044;-80
2022/03/10 06:14:46;;;;;;;20.23;12.73;;;2.20;84.70;;;;;;5092667;28;20051;-80
2022/03/10 06:17:12;;;;;;;19.92;12.35;;;2.20;84.80;;;;;;5092507;28;20562;-80
2022/03/10 06:19:38;;;;;;;20.70;12.63;;;2.20;85.40;;;;;;5092649;28;20432;-81
2022/03/10 06:22:03;;;;;;;23.20;12.32;;;2.20;84.90;;;;;;5109615;28;20035;-80
2022/03/10 06:24:29;;;;;;;18.98;12.40;;;2.20;85.00;;;;;;5092943;28;20457;-80
2022/03/10 06:26:55;;;;;;;17.65;12.23;;;2.30;84.80;;;;;;5092106;28;20130;-80
2022/03/10 06:29:20;;;;;;;17.58;11.73;;;2.30;84.40;;;;;;5075531;28;20050;-80
2022/03/10 06:31:47;;;;;;;20.50;12.35;;;2.40;84.20;;;;;;5075639;28;20051;-80
2022/03/10 06:34:13;;;;;;;17.02;12.00;;;2.40;84.30;;;;;;5092672;28;20090;-80
2022/03/10 06:36:39;;;;;;;19.25;12.13;;;2.50;84.30;;;;;;5092448;28;20522;-80
2022/03/10 06:39:06;;;;;;;17.77;11.73;;;2.50;84.90;;;;;;5075220;28;20039;-80
2022/03/10 06:41:32;;;;;;;18.88;11.90;;;2.50;85.50;;;;;;5092644;28;20135;-80
2022/03/10 06:43:57;;;;;;;19.80;11.63;;;2.50;85.40;;;;;;5091085;28;20593;-80
2022/03/10 06:46:24;;;;;;;18.65;11.10;;;2.50;85.30;;;;;;5084280;27;20122;-81
2022/03/10 06:48:49;;;;;;;19.52;11.80;;;2.60;84.90;;;;;;5075052;27;20043;-80
2022/03/10 06:51:15;;;;;;;16.13;11.30;;;2.70;84.70;;;;;;5101043;27;20036;-81
2022/03/10 06:53:41;;;;;;;17.60;12.05;;;2.70;84.70;;;;;;5102344;27;20027;-81
2022/03/10 06:56:07;;;;;;;17.05;11.43;;;2.80;84.60;;;;;;5111610;27;20617;-80
2022/03/10 06:58:32;;;;;;;19.63;13.18;;;2.80;84.20;;;;;;5111430;27;20042;-81
2022/03/10 07:00:59;;;;;;;18.75;12.25;;;2.90;84.60;;;;;;5109677;27;20045;-81
2022/03/10 07:03:24;;;;;;;18.63;12.38;;;2.90;85.00;;;;;;5112067;27;20113;-79
2022/03/10 07:05:50;;;;;;;19.42;12.52;;;3.00;84.40;;;;;;5111642;27;20484;-80
2022/03/10 07:08:16;;;;;;;17.90;11.93;;;3.00;84.60;;;;;;5094042;27;20459;-79
2022/03/10 07:10:41;;;;;;;19.27;12.52;;;3.00;84.50;;;;;;5112491;27;20047;-78
2022/03/10 07:13:08;;;;;;;17.70;12.90;;;3.10;84.50;;;;;;5112459;27;20512;-80
2022/03/10 07:15:34;;;;;;;17.95;12.20;;;3.10;85.20;;;;;;5104922;28;20112;-81
2022/03/10 07:18:00;;;;;;;16.42;11.63;;;3.20;84.80;;;;;;5095975;27;20410;-81
2022/03/10 07:20:26;;;;;;;20.10;13.15;;;3.20;84.90;;;;;;5111303;27;20047;-81
2022/03/10 07:22:52;;;;;;;20.30;12.75;;;3.20;85.10;;;;;;5094791;27;20039;-80
2022/03/10 07:25:20;;;;;;;18.95;12.57;;;3.30;84.60;;;;;;5107491;28;20479;-80
2022/03/10 07:27:46;;;;;;;18.05;12.23;;;3.30;84.90;;;;;;5105738;27;20078;-80
2022/03/10 07:30:12;;;;;;;17.33;11.80;;;3.30;84.80;;;;;;5111687;27;20077;-80
2022/03/10 07:32:37;;;;;;;18.77;12.68;;;3.40;84.50;;;;;;5111167;27;20676;-80
2022/03/10 07:35:03;;;;;;;18.17;12.40;;;3.40;84.60;;;;;;5093119;28;20118;-80
2022/03/10 07:37:29;;;;;;;19.42;12.98;;;3.50;84.80;;;;;;5105232;28;20054;-80
2022/03/10 07:39:55;;;;;;;22.63;13.25;;;3.60;85.10;;;;;;5081063;28;20039;-79
2022/03/10 07:42:20;;;;;;;20.65;12.25;;;3.60;85.20;;;;;;5077141;28;20470;-80
2022/03/10 07:44:46;;;;;;;19.98;13.05;;;3.60;84.60;;;;;;5087952;28;20040;-81
2022/03/10 07:47:11;;;;;;;16.98;12.13;;;3.70;84.30;;;;;;5101344;28;20039;-80
2022/03/10 07:49:38;;;;;;;19.92;15.73;;;3.80;84.70;;;;;;5100328;28;20420;-81
2022/03/10 07:52:04;;;;;;;18.65;13.20;;;3.80;84.10;;;;;;5084902;28;20050;-80
2022/03/10 07:54:30;;;;;;;18.58;13.05;;;3.80;84.30;;;;;;5108915;28;20079;-80
2022/03/10 07:56:56;;;;;;;18.73;12.68;;;3.90;84.50;;;;;;5100174;28;20414;-80
2022/03/10 07:59:21;;;;;;;19.95;13.15;;;3.90;84.90;;;;;;5090597;28;20046;-80
2022/03/10 08:01:47;;;;;;;18.63;13.05;;;3.90;84.80;;;;;;5098480;28;20062;-80
2022/03/10 08:04:13;;;;;;;17.27;12.68;;;4.00;85.00;;;;;;5089934;28;20442;-80
2022/03/10 08:06:39;;;;;;;19.40;11.90;;;4.00;85.20;;;;;;5090078;28;20044;-80
2022/03/10 08:09:06;;;;;;;18.17;12.65;;;4.10;85.00;;;;;;5090460;28;20040;-80
2022/03/10 08:11:32;;;;;;;21.40;13.20;;;4.20;84.50;;;;;;5107073;28;20058;-80
2022/03/10 08:13:58;;;;;;;20.52;13.15;;;4.30;84.00;;;;;;5110247;28;20100;-80
2022/03/10 08:16:24;;;;;;;16.67;12.23;;;4.30;84.20;;;;;;5110755;28;20039;-80
2022/03/10 08:18:49;;;;;;;18.15;12.13;;;4.40;84.40;;;;;;5100927;28;20046;-80
2022/03/10 08:21:16;;;;;;;17.75;12.75;;;4.50;84.60;;;;;;5090507;28;20130;-80
2022/03/10 08:23:42;;;;;;;20.08;12.43;;;4.50;84.30;;;;;;5108277;28;20050;-80
2022/03/10 08:26:08;;;;;;;18.65;15.10;;;4.60;84.00;;;;;;5094863;28;20428;-80
2022/03/10 08:28:34;;;;;;;18.92;15.18;;;4.70;83.60;;;;;;5072336;28;20808;-81
2022/03/10 08:31:02;;;;;;;20.95;15.30;;;4.70;83.30;;;;;;5089399;28;20408;-81
2022/03/10 08:33:28;;;;;;;19.25;15.20;;;4.70;83.20;;;;;;5089749;28;20441;-81
2022/03/10 08:35:54;;;;;;;18.23;14.80;;;4.80;83.30;;;;;;5088555;28;20420;-80
2022/03/10 08:38:19;;;;;;;19.67;15.17;;;4.90;83.30;;;;;;5092038;28;20457;-81
2022/03/10 08:40:45;;;;;;;18.17;15.02;;;4.90;83.20;;;;;;5093651;28;20396;-81
2022/03/10 08:43:12;;;;;;;17.55;15.00;;;5.00;83.10;;;;;;5093162;28;20441;-80
2022/03/10 08:45:39;;;;;;;18.48;15.10;;;5.10;83.60;;;;;;5075570;28;20431;-81
2022/03/10 08:48:05;;;;;;;19.53;15.60;;;5.10;83.60;;;;;;5101203;27;21026;-81
2022/03/10 08:50:31;;;;;;;17.60;14.85;;;5.20;83.60;;;;;;5109442;27;20398;-81
2022/03/10 08:52:57;;;;;;;17.80;15.15;;;5.30;83.50;;;;;;5104763;27;20424;-81
2022/03/10 08:55:23;;;;;;;17.23;14.45;;;5.40;83.30;;;;;;5089884;27;20402;-80
2022/03/10 08:57:49;;;;;;;17.70;14.25;;;5.50;83.00;;;;;;5090853;27;20471;-81
2022/03/10 09:00:18;;;;;;;19.23;14.95;;;5.60;82.70;;;;;;5099158;27;20400;-81
2022/03/10 09:02:44;;;;;;;21.08;15.50;;;5.80;82.50;;;;;;5107542;27;20410;-80
2022/03/10 09:05:10;;;;;;;18.02;14.77;;;5.80;82.80;;;;;;5090004;27;20508;-81
2022/03/10 09:07:36;;;;;;;17.35;14.73;;;5.90;82.40;;;;;;5093753;27;20922;-81
2022/03/10 09:10:04;;;;;;;17.30;13.93;;;6.00;82.00;;;;;;5107322;27;20403;-80
2022/03/10 09:12:30;;;;;;;18.27;13.15;;;6.20;81.30;;;;;;5110048;27;20101;-81
2022/03/10 09:14:55;;;;;;;16.40;11.57;;;6.30;81.60;;;;;;5113044;27;20500;-81
2022/03/10 09:17:21;;;;;;;17.05;11.95;;;6.40;80.80;;;;;;5092627;28;20520;-83
2022/03/10 09:19:49;;;;;;;19.83;11.55;;;6.60;80.00;;;;;;5101385;28;20051;-81
2022/03/10 09:22:15;;;;;;;17.30;12.00;;;6.70;79.10;;;;;;5094431;27;20052;-82
2022/03/10 09:24:40;;;;;;;;;;;7.00;78.90;;;;;;5112971;27;20057;-82
2022/03/10 09:27:07;;;;;;;;;;;7.80;80.50;;;;;;5113167;27;19926;-83
2022/03/10 09:29:32;;;;;;;;;;;9.10;76.40;;;;;;5108805;28;19919;-82
2022/03/10 09:31:58;;;;;;;;;;;10.10;74.00;;;;;;5112337;27;19930;-82
2022/03/10 09:34:23;;;;;;;;;;;11.10;70.20;;;;;;5113150;27;19923;-82
2022/03/10 09:36:49;;;;;;;;;;;11.80;69.30;;;;;;5113222;27;20030;-81
2022/03/10 09:39:15;;;;;;;;;;;12.60;66.00;;;;;;5096144;27;20009;-81
2022/03/10 09:41:41;;;;;;;;;;;13.10;62.00;;;;;;5095722;27;19962;-81
2022/03/10 09:44:19;;;;;;;;;;;13.50;63.10;;;;;;5110854;27;19926;-81
2022/03/10 09:46:47;;;;;;;;;;;14.00;59.60;;;;;;5110666;28;19920;-82
2022/03/10 09:49:13;;;;;;;;;;;14.40;58.80;;;;;;5079469;28;19993;-81
2022/03/10 09:51:39;;;;;;;;;;;14.70;57.80;;;;;;5109685;28;20360;-82
2022/03/10 09:54:07;;;;;;;;;;;14.90;56.30;;;;;;5093230;28;19930;-81
2022/03/10 09:56:36;;;;;;;;;;;15.10;55.40;;;;;;5093960;28;19920;-82
2022/03/10 09:59:05;;;;;;;;;;;15.20;55.20;;;;;;5110671;28;19919;-81
2022/03/10 10:01:30;;;;;;;;;;;15.30;56.20;;;;;;5093737;28;20006;-82
2022/03/10 10:03:56;;;;;;;;;;;15.50;54.70;;;;;;5103778;27;20322;-82
2022/03/10 10:06:21;;;;;;;;;;;16.00;54.60;;;;;;5112850;27;19920;-82
2022/03/10 10:08:53;;;;;;;;;;;16.40;51.20;;;;;;5113384;27;19919;-80
2022/03/10 10:11:28;;;;;;;;;;;16.50;52.30;;;;;;5113399;27;20043;-80
2022/03/10 10:13:54;;;;;;;;;;;16.50;49.90;;;;;;5112987;27;19926;-80
2022/03/10 10:16:21;;;;;;;;;;;16.50;49.80;;;;;;5096068;27;19927;-80
2022/03/10 10:18:46;;;;;;;;;;;16.60;49.40;;;;;;5104505;27;19931;-80
2022/03/10 10:21:14;;;;;;;;;;;16.70;48.30;;;;;;5095332;27;19923;-81
2022/03/10 10:23:40;;;;;;;;;;;16.90;49.00;;;;;;5095598;27;19919;-80
2022/03/10 10:26:06;;;;;;;;;;;17.30;49.40;;;;;;5112652;27;20330;-82
2022/03/10 10:28:38;;;;;;;;;;;17.50;48.10;;;;;;5112149;27;19923;-80
2022/03/10 10:31:04;;;;;;;;;;;17.80;48.90;;;;;;5095313;27;20377;-80
2022/03/10 10:33:31;;;;;;;;;;;18.10;48.50;;;;;;5108246;27;19920;-80
2022/03/10 10:36:16;;;;;;;;;;;18.30;47.50;;;;;;5094813;28;20378;-80
2022/03/10 10:38:42;;;;;;;;;;;18.30;45.80;;;;;;5092114;28;19959;-80
2022/03/10 10:41:15;;;;;;;;;;;18.20;45.20;;;;;;5075144;28;19920;-80
2022/03/10 10:43:42;;;;;;;;;;;18.20;44.80;;;;;;5125213;27;20384;-80
2022/03/10 10:46:08;;;;;;;;;;;18.20;46.60;;;;;;5091114;28;19920;-81
2022/03/10 10:48:44;;;;;;;;;;;18.50;46.10;;;;;;5107145;28;19919;-80
2022/03/10 10:51:10;;;;;;;;;;;18.60;43.80;;;;;;5091661;28;19962;-80
2022/03/10 10:53:39;;;;;;;;;;;18.80;45.40;;;;;;5090546;28;19929;-81
2022/03/10 10:56:05;;;;;;;;;;;19.00;44.10;;;;;;5091522;28;19924;-81
2022/03/10 10:58:30;;;;;;;;;;;19.00;44.30;;;;;;5110967;27;19972;-80
2022/03/10 11:00:57;;;;;;;;;;;19.30;44.10;;;;;;5095239;28;19924;-81
2022/03/10 11:03:36;;;;;;;;;;;19.30;43.00;;;;;;5091956;28;20297;-81
2022/03/10 11:06:01;;;;;;;;;;;19.30;43.00;;;;;;5074348;28;19972;-80
2022/03/10 11:08:28;;;;;;;;;;;19.40;43.70;;;;;;5091114;28;20307;-80
2022/03/10 11:10:54;;;;;;;;;;;19.50;43.80;;;;;;5110258;27;19966;-80
2022/03/10 11:13:19;;;;;;;;;;;19.70;42.90;;;;;;5111887;27;20410;-80
2022/03/10 11:15:46;;;;;;;;;;;20.00;40.70;;;;;;5089089;28;19919;-80
2022/03/10 11:18:13;;;;;;;;;;;20.00;41.60;;;;;;5091984;28;19942;-80
2022/03/10 11:20:39;;;;;;;;;;;20.00;40.40;;;;;;5092405;28;19919;-81
2022/03/10 11:23:05;;;;;;;;;;;20.20;41.50;;;;;;5091823;28;19926;-81
2022/03/10 11:25:37;;;;;;;;;;;20.40;41.10;;;;;;5075140;28;20017;-80
2022/03/10 11:28:05;;;;;;;;;;;20.40;39.50;;;;;;5091359;28;19923;-80
2022/03/10 11:30:32;;;;;;;;;;;20.50;39.50;;;;;;5108546;28;19920;-81
2022/03/10 11:33:00;;;;;;;;;;;20.50;41.00;;;;;;5099594;27;19971;-81
2022/03/10 11:35:37;;;;;;;;;;;20.80;38.20;;;;;;5111352;27;19962;-80
2022/03/10 11:38:02;;;;;;;;;;;20.70;38.20;;;;;;5107246;27;19977;-80
2022/03/10 11:40:47;;;;;;;;;;;20.90;39.30;;;;;;5095519;28;19923;-82
2022/03/10 11:43:30;;;;;;;;;;;21.10;38.30;;;;;;5104354;28;19920;-82
2022/03/10 11:46:14;;;;;;;;;;;21.00;37.70;;;;;;5108584;28;19959;-80
2022/03/10 11:48:39;;;;;;;;;;;20.90;37.00;;;;;;5081335;28;20008;-80
2022/03/10 11:51:09;;;;;;;;;;;21.00;39.00;;;;;;5075178;28;20465;-80
2022/03/10 11:53:55;;;;;;;;;;;21.10;38.10;;;;;;5098978;28;19927;-80
2022/03/10 11:56:31;;;;;;;;;;;21.10;36.70;;;;;;5100430;28;20430;-80
2022/03/10 11:58:59;;;;;;;;;;;21.20;39.30;;;;;;5086354;28;19920;-80
2022/03/10 12:01:24;;;;;;;;;;;21.40;38.40;;;;;;5106721;28;19919;-80
2022/03/10 12:03:50;;;;;;;;;;;21.30;36.30;;;;;;5111949;28;19920;-80
2022/03/10 12:06:16;;;;;;;;;;;21.50;38.40;;;;;;5102329;28;20538;-80
2022/03/10 12:09:00;;;;;;;;;;;21.60;38.00;;;;;;5105807;28;19919;-80
2022/03/10 12:11:45;;;;;;;;;;;21.90;37.80;;;;;;5105799;28;19921;-80
2022/03/10 12:14:23;;;;;;;;;;;22.00;36.80;;;;;;5095209;28;19923;-81
2022/03/10 12:16:49;;;;;;;;;;;22.00;36.90;;;;;;5094686;28;19954;-80
2022/03/10 12:19:14;;;;;;;;;;;22.00;35.50;;;;;;5096083;28;20372;-80
2022/03/10 12:21:40;;;;;;;;;;;22.00;36.90;;;;;;5080338;27;20109;-81
2022/03/10 12:24:05;;;;;;;;;;;22.20;36.60;;;;;;5096188;28;19924;-81
2022/03/10 12:26:32;;;;;;;;;;;22.40;36.50;;;;;;5113577;28;19923;-81
2022/03/10 12:29:01;;;;;;;;;;;22.40;35.90;;;;;;5112199;28;19920;-81
2022/03/10 12:31:29;;;;;;;;;;;22.40;36.20;;;;;;5077496;28;19927;-80
2022/03/10 12:33:57;;;;;;;;;;;22.40;36.70;;;;;;5095357;28;20056;-80
2022/03/10 12:36:59;;;;;;;;;;;22.40;36.10;;;;;;5112096;28;20034;-81
2022/03/10 12:39:27;;;;;;;;;;;22.60;36.00;;;;;;5044363;27;19924;-81
2022/03/10 12:41:54;;;;;;;;;;;22.80;35.50;;;;;;5115624;27;19926;-80
2022/03/10 12:44:22;;;;;;;;;;;22.80;36.10;;;;;;5111460;28;19928;-80
2022/03/10 12:46:48;;;;;;;;;;;22.90;35.20;;;;;;5094403;28;19924;-81
2022/03/10 12:49:19;;;;;;;;;;;22.90;35.00;;;;;;5095096;28;19923;-79
2022/03/10 12:51:45;;;;;;;;;;;22.80;34.80;;;;;;5112191;28;19964;-81
2022/03/10 12:54:10;;;;;;;;;;;22.80;35.00;;;;;;5107035;27;19950;-80
2022/03/10 12:56:46;;;;;;;;;;;23.00;35.30;;;;;;5097516;27;20403;-81
2022/03/10 12:59:12;;;;;;;;;;;23.40;35.40;;;;;;5115511;27;19946;-80
2022/03/10 13:01:39;;;;;;;;;;;23.70;35.10;;;;;;5112566;27;19926;-80
2022/03/10 13:04:10;;;;;;;;;;;23.70;34.40;;;;;;5094475;28;20368;-80
2022/03/10 13:06:37;;;;;;;;;;;23.80;33.50;;;;;;5077803;28;19919;-80
2022/03/10 13:09:03;;;;;;;;;;;24.00;34.80;;;;;;5093576;27;19920;-80